Skip Navigation LinksHome page > Weather > Current weather Skip Navigation Links

Current Weather

Biggin Hill, United Kingdom

For information only: do not use for flight planning or navigation.
Latest weather
Observation time Monday, October 18, 2021 9:50 PM BST
Local time Monday, October 18, 2021 10:06 PM BST
Flight conditions Low Instrument Meteorological Conditions
Winds
Wind direction South-Southwest (200°)
Wind speed 18 mph
Visibility 6.2 mi.
Present weather light drizzle
Sky condition
Ceiling 200 ft. broken clouds
Cloud layer broken clouds 200 ft.
Temperature 59°F
Dewpoint 59°F
Altimeter 29.97 in.Hg
Derived measurements
Relative humidity 100%
Density altitude 176 ft.
METAR EGKB 182050Z 20016KT 9999 -DZ BKN002 15/15 Q1015

Settings

Location code

InnerDrive.Weather 4.0.6770.0 Release CLR 4.0.30319.42000
Copyright ©2018 Inner Drive Technology. All rights reserved. Portions Copyright ©1986-2018 David Braverman.

Find weather

Site navigation


Skip Navigation Links

Place info

Page info

PayPal - The safer, easier way to pay online!

Return home.

Copyright ©2021 Inner Drive Technology. Purveyors of fine, hand-crafted computer software. Page printed 2021-10-18T21:06:20 UTC.